createdAt,value
2023-05-13T14:23:30.876Z,4.82
2023-05-13T14:28:33.511Z,4.57
2023-05-13T14:33:36.235Z,3.92
2023-05-13T14:38:39.866Z,4.45
2023-05-13T14:43:41.923Z,4.40
2023-05-13T14:48:44.065Z,4.80
2023-05-13T14:53:46.160Z,4.50
2023-05-13T14:58:48.312Z,4.23
2023-05-13T15:03:50.401Z,4.20
2023-05-13T15:08:52.457Z,3.70
2023-05-13T15:13:54.627Z,3.92
2023-05-13T15:18:56.798Z,3.70
2023-05-13T15:24:02.385Z,5.00
2023-05-13T15:29:04.476Z,4.30
2023-05-13T15:34:06.526Z,4.20
2023-05-13T15:39:10.961Z,4.05
2023-05-13T15:44:13.303Z,5.10
2023-05-13T15:49:15.698Z,4.43
2023-05-13T15:54:17.740Z,4.30
2023-05-13T15:59:19.874Z,4.30
2023-05-13T16:04:22.030Z,4.28
2023-05-13T16:09:24.109Z,4.27
2023-05-13T16:14:27.058Z,4.75
2023-05-13T16:19:29.184Z,4.22
2023-05-13T16:24:31.288Z,4.90
2023-05-13T16:29:33.431Z,4.10
2023-05-13T16:34:35.569Z,4.45
2023-05-13T16:39:37.791Z,4.80
2023-05-13T16:44:39.859Z,4.67
2023-05-13T16:49:42.696Z,4.62
2023-05-13T16:54:44.873Z,4.50
2023-05-13T16:59:46.962Z,4.90
2023-05-13T17:04:49.048Z,4.28
2023-05-13T17:09:51.161Z,4.80
2023-05-13T17:14:53.529Z,4.37
2023-05-13T17:19:55.700Z,4.10
2023-05-13T17:24:57.869Z,3.97
2023-05-13T17:29:59.942Z,3.57
2023-05-13T17:35:03.003Z,4.43
2023-05-13T17:40:05.852Z,4.25
2023-05-13T17:45:09.697Z,4.00
2023-05-13T17:50:14.340Z,4.50
2023-05-13T17:55:16.565Z,4.20
2023-05-13T18:00:18.921Z,4.43
2023-05-13T18:05:24.053Z,4.60
2023-05-13T18:10:27.468Z,4.50
2023-05-13T18:15:29.693Z,4.47
2023-05-13T18:20:32.775Z,5.10
2023-05-13T18:25:42.441Z,5.03
2023-05-13T18:30:50.904Z,5.00
2023-05-13T18:35:53.279Z,5.20
2023-05-13T18:40:55.543Z,5.30
2023-05-13T18:45:58.151Z,4.90
2023-05-13T18:51:00.314Z,5.57
2023-05-13T18:56:02.562Z,5.60
2023-05-13T19:01:04.800Z,5.43
2023-05-13T19:06:07.473Z,5.35
2023-05-13T19:11:09.902Z,5.27
2023-05-13T19:16:12.012Z,4.70
2023-05-13T19:21:14.123Z,4.97
2023-05-13T19:26:16.371Z,5.28
2023-05-13T19:31:18.916Z,5.03
2023-05-13T19:36:23.749Z,5.07
2023-05-13T19:41:26.204Z,5.12
